Time;durP1;ratioP1;P1;durP2;ratioP2;P2;SDS_P1;SDS_P2;PMS_P1;PMS_P2;Temp;Humidity;BMP_temperature;BMP_pressure;BME280_temperature;BME280_humidity;BME280_pressure;Samples;Min_cycle;Max_cycle;Signal;HPM_P1;HPM_P2
2023/08/26 00:00:41;;;;;;;0.00;0.00;;;17.50;99.90;;;;;;5072373;28;20028;-80
2023/08/26 00:03:07;;;;;;;0.00;0.00;;;17.40;99.90;;;;;;5084326;28;20021;-80
2023/08/26 00:05:33;;;;;;;0.00;0.00;;;17.60;99.90;;;;;;5081297;28;20020;-80
2023/08/26 00:07:58;;;;;;;0.00;0.00;;;17.50;99.90;;;;;;5078409;28;20020;-80
2023/08/26 00:10:24;;;;;;;0.10;0.10;;;17.50;99.90;;;;;;5086542;28;20039;-80
2023/08/26 00:12:51;;;;;;;0.07;0.07;;;17.50;99.90;;;;;;5075603;28;20052;-80
2023/08/26 00:15:17;;;;;;;0.00;0.00;;;17.40;99.90;;;;;;5077882;28;20097;-80
2023/08/26 00:17:43;;;;;;;0.00;0.00;;;17.50;99.90;;;;;;5085670;28;20479;-80
2023/08/26 00:20:09;;;;;;;0.00;0.00;;;17.50;99.90;;;;;;5078379;28;20021;-80
2023/08/26 00:22:38;;;;;;;0.00;0.00;;;17.50;99.90;;;;;;5076824;28;20040;-81
2023/08/26 00:25:04;;;;;;;0.10;0.10;;;17.40;99.90;;;;;;5084958;28;20060;-80
2023/08/26 00:27:30;;;;;;;0.00;0.00;;;17.40;99.90;;;;;;5080797;28;20461;-79
2023/08/26 00:29:55;;;;;;;0.00;0.00;;;17.40;99.90;;;;;;5085773;28;20036;-80
2023/08/26 00:32:21;;;;;;;0.00;0.00;;;17.50;99.90;;;;;;5077015;28;20035;-79
2023/08/26 00:34:47;;;;;;;0.00;0.00;;;17.50;99.90;;;;;;5084435;28;20499;-79
2023/08/26 00:37:12;;;;;;;0.00;0.00;;;17.30;99.90;;;;;;5080623;28;20048;-80
2023/08/26 00:39:38;;;;;;;0.00;0.00;;;17.40;99.90;;;;;;5082616;28;20475;-79
2023/08/26 00:42:04;;;;;;;0.00;0.00;;;17.50;99.90;;;;;;5073683;28;20025;-80
2023/08/26 00:44:30;;;;;;;0.00;0.00;;;17.60;99.90;;;;;;5082509;28;20075;-79
2023/08/26 00:46:57;;;;;;;0.10;0.10;;;17.60;99.90;;;;;;5072355;28;20025;-80
2023/08/26 00:49:23;;;;;;;;;;;17.60;99.90;;;;;;5082813;28;20180;-80
2023/08/26 00:51:49;;;;;;;0.00;0.00;;;17.60;99.90;;;;;;5066660;28;20266;-79
2023/08/26 00:54:16;;;;;;;0.00;0.00;;;17.70;99.90;;;;;;5085324;28;20036;-80
2023/08/26 00:56:42;;;;;;;0.00;0.00;;;17.80;99.90;;;;;;5077132;28;20524;-80
2023/08/26 00:59:08;;;;;;;0.00;0.00;;;17.90;99.90;;;;;;5066983;28;20020;-80
2023/08/26 01:01:35;;;;;;;0.20;0.20;;;17.80;99.90;;;;;;5074582;28;20108;-80
2023/08/26 01:04:01;;;;;;;0.00;0.00;;;17.90;99.90;;;;;;5084446;28;20028;-80
2023/08/26 01:06:27;;;;;;;0.00;0.00;;;17.90;99.90;;;;;;5066575;28;20379;-80
2023/08/26 01:08:53;;;;;;;0.80;0.40;;;17.90;99.90;;;;;;5081877;28;20665;-80
2023/08/26 01:11:27;;;;;;;0.00;0.00;;;17.90;99.90;;;;;;5064638;28;20558;-80
2023/08/26 01:14:08;;;;;;;0.00;0.00;;;17.90;99.90;;;;;;5078120;28;20468;-80
2023/08/26 01:16:35;;;;;;;0.00;0.00;;;17.90;99.90;;;;;;5077667;28;20035;-80
2023/08/26 01:19:02;;;;;;;0.20;0.20;;;17.80;99.90;;;;;;5062696;28;20039;-80
2023/08/26 01:21:35;;;;;;;0.10;0.10;;;17.70;99.90;;;;;;5061675;28;20029;-80
2023/08/26 01:24:02;;;;;;;0.10;0.10;;;17.60;99.90;;;;;;5072975;28;20017;-79
2023/08/26 01:26:28;;;;;;;0.00;0.00;;;17.50;99.90;;;;;;5079897;28;20024;-80
2023/08/26 01:28:53;;;;;;;0.00;0.00;;;17.30;99.90;;;;;;5079618;28;20035;-80
2023/08/26 01:31:21;;;;;;;0.20;0.20;;;17.10;99.90;;;;;;5053472;28;20024;-80
2023/08/26 01:33:50;;;;;;;0.32;0.30;;;16.90;99.90;;;;;;5065765;28;20020;-79
2023/08/26 01:36:20;;;;;;;0.10;0.10;;;17.00;99.90;;;;;;5078673;28;20032;-79
2023/08/26 01:38:46;;;;;;;0.00;0.00;;;16.90;99.90;;;;;;5079774;28;20025;-80
2023/08/26 01:41:18;;;;;;;0.00;0.00;;;16.80;99.90;;;;;;5079714;28;20028;-80
2023/08/26 01:43:45;;;;;;;0.00;0.00;;;16.80;99.90;;;;;;5081541;28;20024;-80
2023/08/26 01:46:11;;;;;;;0.00;0.00;;;16.90;99.90;;;;;;5084005;28;20037;-80
2023/08/26 01:48:36;;;;;;;0.00;0.00;;;16.90;99.90;;;;;;5080796;28;20489;-80
2023/08/26 01:51:02;;;;;;;0.00;0.00;;;17.00;99.90;;;;;;5081627;28;20495;-80
2023/08/26 01:53:28;;;;;;;0.10;0.10;;;17.10;99.90;;;;;;5081876;28;20032;-80
2023/08/26 01:55:53;;;;;;;0.00;0.00;;;17.30;99.90;;;;;;5083263;28;20020;-80
2023/08/26 01:58:19;;;;;;;0.00;0.00;;;17.40;99.90;;;;;;5076205;28;20024;-80
2023/08/26 02:00:45;;;;;;;0.00;0.00;;;17.50;99.90;;;;;;5072273;28;20425;-83
2023/08/26 02:03:10;;;;;;;0.00;0.00;;;17.60;99.90;;;;;;5078846;28;20749;-83
2023/08/26 02:05:36;;;;;;;0.00;0.00;;;17.70;99.90;;;;;;5083318;28;20023;-83
2023/08/26 02:08:02;;;;;;;0.10;0.10;;;17.70;99.90;;;;;;5083369;28;20040;-82
2023/08/26 02:10:27;;;;;;;0.00;0.00;;;17.70;99.90;;;;;;5083299;28;20032;-80
2023/08/26 02:12:54;;;;;;;0.00;0.00;;;17.60;99.90;;;;;;5054488;28;20025;-80
2023/08/26 02:15:19;;;;;;;0.00;0.00;;;17.60;99.90;;;;;;5080203;28;20101;-80
2023/08/26 02:17:45;;;;;;;0.00;0.00;;;17.60;99.90;;;;;;5073373;28;20854;-80
2023/08/26 02:20:11;;;;;;;0.10;0.10;;;17.80;99.90;;;;;;5081704;28;20077;-80
2023/08/26 02:22:36;;;;;;;0.00;0.00;;;17.80;99.90;;;;;;5081239;28;21015;-80
2023/08/26 02:25:03;;;;;;;0.00;0.00;;;17.70;99.90;;;;;;5083523;28;20038;-80
2023/08/26 02:27:28;;;;;;;0.00;0.00;;;17.70;99.90;;;;;;5075321;28;20390;-81
2023/08/26 02:29:54;;;;;;;0.10;0.10;;;17.70;99.90;;;;;;5048902;28;20075;-81
2023/08/26 02:32:20;;;;;;;0.00;0.00;;;17.60;99.90;;;;;;5085521;28;20047;-81
2023/08/26 02:34:45;;;;;;;0.80;0.73;;;17.60;99.90;;;;;;5079511;28;20101;-80
2023/08/26 02:37:11;;;;;;;0.00;0.00;;;17.70;99.90;;;;;;5064351;28;20093;-80
2023/08/26 02:39:37;;;;;;;0.00;0.00;;;17.70;99.90;;;;;;5083586;28;20024;-81
2023/08/26 02:42:03;;;;;;;0.10;0.10;;;17.60;99.90;;;;;;5083202;28;20059;-81
2023/08/26 02:44:29;;;;;;;0.00;0.00;;;17.70;99.90;;;;;;5077839;28;20173;-79
2023/08/26 02:46:54;;;;;;;0.00;0.00;;;17.60;99.90;;;;;;5075255;28;20020;-79
2023/08/26 02:49:20;;;;;;;0.00;0.00;;;17.70;99.90;;;;;;5081930;28;20020;-79
2023/08/26 02:51:46;;;;;;;0.00;0.00;;;17.60;99.90;;;;;;5083428;28;20024;-79
2023/08/26 02:54:11;;;;;;;0.00;0.00;;;17.50;99.90;;;;;;5078101;28;20554;-80
2023/08/26 02:56:37;;;;;;;0.00;0.00;;;17.50;99.90;;;;;;5081074;28;20023;-80
2023/08/26 02:59:03;;;;;;;0.00;0.00;;;17.50;99.90;;;;;;5081789;28;20016;-79
2023/08/26 03:01:30;;;;;;;0.00;0.00;;;17.50;99.90;;;;;;5073433;28;20048;-80
2023/08/26 03:03:57;;;;;;;0.00;0.00;;;17.50;99.90;;;;;;5082494;28;20071;-81
2023/08/26 03:06:22;;;;;;;;;;;17.60;99.90;;;;;;5081336;28;20118;-79
2023/08/26 03:08:48;;;;;;;0.00;0.00;;;17.60;99.90;;;;;;5081594;28;19912;-80
2023/08/26 03:11:14;;;;;;;0.00;0.00;;;17.60;99.90;;;;;;5081598;28;20379;-79
2023/08/26 03:13:40;;;;;;;0.00;0.00;;;17.50;99.90;;;;;;5068703;28;20263;-79
2023/08/26 03:16:08;;;;;;;0.00;0.00;;;17.40;99.90;;;;;;5074907;28;20055;-79
2023/08/26 03:18:34;;;;;;;0.10;0.10;;;17.50;99.90;;;;;;5082872;28;20055;-79
2023/08/26 03:21:07;;;;;;;0.00;0.00;;;17.60;99.90;;;;;;5080685;28;20039;-79
2023/08/26 03:23:34;;;;;;;0.00;0.00;;;17.60;99.90;;;;;;5075715;28;20494;-79
2023/08/26 03:26:00;;;;;;;0.00;0.00;;;17.50;99.90;;;;;;5084171;28;20097;-79
2023/08/26 03:28:26;;;;;;;0.00;0.00;;;17.50;99.90;;;;;;5080451;28;20039;-79
2023/08/26 03:30:52;;;;;;;0.00;0.00;;;17.40;99.90;;;;;;5081695;28;20028;-79
2023/08/26 03:33:18;;;;;;;0.00;0.00;;;17.50;99.90;;;;;;5086321;28;20099;-79
2023/08/26 03:35:43;;;;;;;0.00;0.00;;;17.40;99.90;;;;;;5086100;28;20042;-79
2023/08/26 03:38:09;;;;;;;0.00;0.00;;;17.40;99.90;;;;;;5086837;28;20741;-79
2023/08/26 03:40:40;;;;;;;0.20;0.20;;;17.40;99.90;;;;;;5081223;28;20390;-79
2023/08/26 03:43:05;;;;;;;0.00;0.00;;;17.30;99.90;;;;;;5083106;28;20024;-79
2023/08/26 03:45:31;;;;;;;0.00;0.00;;;17.30;99.90;;;;;;5075627;28;20772;-79
2023/08/26 03:47:57;;;;;;;0.00;0.00;;;17.40;99.90;;;;;;5067680;28;20465;-80
2023/08/26 03:50:23;;;;;;;0.00;0.00;;;17.50;99.90;;;;;;5079408;28;20029;-79
2023/08/26 03:52:49;;;;;;;0.20;0.20;;;17.40;99.90;;;;;;5076037;28;20024;-78
2023/08/26 03:55:14;;;;;;;0.00;0.00;;;17.50;99.90;;;;;;5082561;28;20100;-79
2023/08/26 03:57:40;;;;;;;0.00;0.00;;;17.40;99.90;;;;;;5081178;28;20502;-79
2023/08/26 04:00:06;;;;;;;0.10;0.10;;;17.30;99.90;;;;;;5080813;28;20123;-79
2023/08/26 04:02:32;;;;;;;0.00;0.00;;;17.30;99.90;;;;;;5080883;28;20016;-79
2023/08/26 04:04:58;;;;;;;0.00;0.00;;;17.30;99.90;;;;;;5084840;28;20663;-79
2023/08/26 04:07:23;;;;;;;0.00;0.00;;;17.40;99.90;;;;;;5081709;28;20036;-80
2023/08/26 04:09:49;;;;;;;0.00;0.00;;;17.40;99.90;;;;;;5076105;28;20109;-79
2023/08/26 04:12:15;;;;;;;0.00;0.00;;;17.40;99.90;;;;;;5089608;28;20016;-80
2023/08/26 04:14:40;;;;;;;0.00;0.00;;;17.40;99.90;;;;;;5081647;28;20477;-80
2023/08/26 04:17:06;;;;;;;0.00;0.00;;;17.30;99.90;;;;;;5085626;28;20185;-80
2023/08/26 04:19:32;;;;;;;0.00;0.00;;;17.20;99.90;;;;;;5075142;28;20025;-79
2023/08/26 04:22:01;;;;;;;0.00;0.00;;;17.30;99.90;;;;;;5085954;28;20108;-78
2023/08/26 04:24:27;;;;;;;0.00;0.00;;;17.50;99.90;;;;;;5088770;28;20030;-80
2023/08/26 04:26:53;;;;;;;0.00;0.00;;;17.30;99.90;;;;;;5074121;28;20745;-79
2023/08/26 04:29:19;;;;;;;0.27;0.20;;;17.20;99.90;;;;;;5082588;28;20043;-81
2023/08/26 04:31:44;;;;;;;0.20;0.20;;;17.30;99.90;;;;;;5085813;28;20032;-84
2023/08/26 04:34:11;;;;;;;0.00;0.00;;;17.20;99.90;;;;;;5085615;28;20024;-80
2023/08/26 04:36:36;;;;;;;0.00;0.00;;;17.30;99.90;;;;;;5084798;28;20057;-80
2023/08/26 04:39:07;;;;;;;0.10;0.10;;;17.30;99.90;;;;;;5084810;28;20024;-78
2023/08/26 04:41:35;;;;;;;0.00;0.00;;;17.30;99.90;;;;;;5085145;28;20430;-76
2023/08/26 04:44:01;;;;;;;0.23;0.23;;;17.30;99.90;;;;;;5085256;28;20115;-76
2023/08/26 04:46:26;;;;;;;0.00;0.00;;;17.60;99.90;;;;;;5085610;28;20030;-77
2023/08/26 04:48:52;;;;;;;0.10;0.10;;;17.50;99.90;;;;;;5083379;28;20124;-77
2023/08/26 04:51:18;;;;;;;0.00;0.00;;;17.50;99.90;;;;;;5058909;28;20891;-77
2023/08/26 04:53:43;;;;;;;0.20;0.20;;;17.40;99.90;;;;;;5081324;28;20048;-77
2023/08/26 04:56:09;;;;;;;0.00;0.00;;;17.40;99.90;;;;;;5084533;28;20038;-78
2023/08/26 04:58:37;;;;;;;0.00;0.00;;;17.30;99.90;;;;;;5080207;28;20016;-77
2023/08/26 05:01:02;;;;;;;0.00;0.00;;;17.30;99.90;;;;;;5073258;28;20021;-79
2023/08/26 05:03:28;;;;;;;0.00;0.00;;;17.30;99.90;;;;;;5081358;28;20024;-77
2023/08/26 05:05:54;;;;;;;0.00;0.00;;;17.40;99.90;;;;;;5082063;28;20024;-76
2023/08/26 05:08:19;;;;;;;0.00;0.00;;;17.40;99.90;;;;;;5084129;28;20024;-76
2023/08/26 05:10:45;;;;;;;0.00;0.00;;;17.40;99.90;;;;;;5079059;28;20036;-76
2023/08/26 05:13:11;;;;;;;0.00;0.00;;;17.30;99.90;;;;;;5071572;28;20059;-79
2023/08/26 05:15:36;;;;;;;0.03;0.03;;;17.30;99.90;;;;;;5070602;28;20044;-77
2023/08/26 05:18:03;;;;;;;0.00;0.00;;;17.40;99.90;;;;;;5082540;28;20466;-76
2023/08/26 05:20:29;;;;;;;0.00;0.00;;;17.40;99.90;;;;;;5076783;28;20107;-76
2023/08/26 05:22:56;;;;;;;0.08;0.08;;;17.20;99.90;;;;;;5079359;28;20020;-78
2023/08/26 05:25:21;;;;;;;0.17;0.17;;;17.00;99.90;;;;;;5070493;28;20108;-78
2023/08/26 05:27:47;;;;;;;0.00;0.00;;;17.00;99.90;;;;;;5075708;28;20062;-78
2023/08/26 05:30:13;;;;;;;0.20;0.20;;;16.90;99.90;;;;;;5080956;28;20491;-77
2023/08/26 05:32:39;;;;;;;0.03;0.03;;;17.00;99.90;;;;;;5072384;28;20344;-77
2023/08/26 05:35:05;;;;;;;0.20;0.20;;;17.20;99.90;;;;;;5058156;28;20035;-78
2023/08/26 05:37:31;;;;;;;0.20;0.20;;;17.40;99.90;;;;;;5076149;28;20103;-77
2023/08/26 05:39:56;;;;;;;0.00;0.00;;;17.40;99.90;;;;;;5082978;28;20543;-77
2023/08/26 05:42:22;;;;;;;0.00;0.00;;;17.50;99.90;;;;;;5080995;28;20024;-78
2023/08/26 05:44:48;;;;;;;0.20;0.20;;;17.50;99.90;;;;;;5081299;28;20031;-77
2023/08/26 05:47:13;;;;;;;0.00;0.00;;;17.50;99.90;;;;;;5082189;28;20055;-77
2023/08/26 05:49:39;;;;;;;0.00;0.00;;;17.60;99.90;;;;;;5078359;28;20428;-77
2023/08/26 05:52:05;;;;;;;0.97;0.43;;;17.40;99.90;;;;;;5075443;28;20189;-77
2023/08/26 05:54:31;;;;;;;0.00;0.00;;;17.30;99.90;;;;;;5078248;28;20024;-80
2023/08/26 05:56:56;;;;;;;0.47;0.47;;;17.30;99.90;;;;;;5082411;28;20558;-78
2023/08/26 05:59:22;;;;;;;0.00;0.00;;;17.40;99.90;;;;;;5063137;28;20033;-78
2023/08/26 06:01:47;;;;;;;0.20;0.13;;;17.50;99.90;;;;;;5078968;28;20024;-79
2023/08/26 06:04:13;;;;;;;0.00;0.00;;;17.40;99.90;;;;;;5083043;28;20024;-79
2023/08/26 06:06:39;;;;;;;0.10;0.10;;;17.40;99.90;;;;;;5082798;28;20012;-76
2023/08/26 06:09:04;;;;;;;0.10;0.10;;;17.40;99.90;;;;;;5081924;28;20092;-75
2023/08/26 06:11:31;;;;;;;0.00;0.00;;;17.40;99.90;;;;;;5079031;28;20052;-75
2023/08/26 06:13:58;;;;;;;0.00;0.00;;;17.40;99.90;;;;;;5082690;28;20080;-75
2023/08/26 06:16:24;;;;;;;0.10;0.10;;;17.20;99.90;;;;;;5081343;28;20043;-76
2023/08/26 06:18:49;;;;;;;0.33;0.33;;;17.30;99.90;;;;;;5074456;28;20084;-75
2023/08/26 06:21:15;;;;;;;0.00;0.00;;;17.10;99.90;;;;;;5082971;28;20078;-79
2023/08/26 06:23:41;;;;;;;0.00;0.00;;;17.10;99.90;;;;;;5073270;28;20820;-80
2023/08/26 06:26:07;;;;;;;0.00;0.00;;;17.20;99.90;;;;;;5083124;28;20028;-80
2023/08/26 06:28:32;;;;;;;0.00;0.00;;;17.30;99.90;;;;;;5082023;28;20051;-78
2023/08/26 06:30:59;;;;;;;0.00;0.00;;;17.30;99.90;;;;;;5074092;28;20368;-80
2023/08/26 06:33:25;;;;;;;0.00;0.00;;;17.20;99.90;;;;;;5078805;28;20024;-75
2023/08/26 06:35:51;;;;;;;0.00;0.00;;;17.40;99.90;;;;;;5064259;28;20020;-75
2023/08/26 06:38:17;;;;;;;0.10;0.10;;;17.20;99.90;;;;;;5082449;28;20023;-75
2023/08/26 06:40:42;;;;;;;0.00;0.00;;;17.20;99.90;;;;;;5076521;28;20020;-77
2023/08/26 06:43:08;;;;;;;0.00;0.00;;;17.30;99.90;;;;;;5080272;28;20058;-77
2023/08/26 06:45:34;;;;;;;0.10;0.10;;;17.30;99.90;;;;;;5076480;28;20016;-75
2023/08/26 06:48:00;;;;;;;0.00;0.00;;;17.40;99.90;;;;;;5080570;28;20024;-75
2023/08/26 06:50:25;;;;;;;0.00;0.00;;;17.20;99.90;;;;;;5083562;28;20036;-75
2023/08/26 06:52:51;;;;;;;0.00;0.00;;;17.00;99.90;;;;;;5078336;28;20793;-76
2023/08/26 06:55:18;;;;;;;0.10;0.10;;;17.00;99.90;;;;;;5070933;28;20031;-76
2023/08/26 06:57:44;;;;;;;0.00;0.00;;;17.20;99.90;;;;;;5077341;28;20621;-76
2023/08/26 07:00:12;;;;;;;0.00;0.00;;;17.40;99.90;;;;;;5064801;28;20028;-76
2023/08/26 07:02:38;;;;;;;0.00;0.00;;;17.20;99.90;;;;;;5079281;28;20020;-82
2023/08/26 07:05:04;;;;;;;0.00;0.00;;;16.80;99.90;;;;;;5050139;28;20054;-76
2023/08/26 07:07:30;;;;;;;0.00;0.00;;;16.80;99.90;;;;;;5084448;28;20036;-77
2023/08/26 07:09:56;;;;;;;0.00;0.00;;;17.20;99.90;;;;;;5075604;28;20031;-75
2023/08/26 07:12:21;;;;;;;0.28;0.28;;;17.60;99.90;;;;;;5080421;28;20020;-79
2023/08/26 07:14:47;;;;;;;0.10;0.10;;;17.60;99.90;;;;;;5070073;28;20043;-76
2023/08/26 07:17:16;;;;;;;0.10;0.10;;;17.00;99.90;;;;;;5081779;28;20074;-75
2023/08/26 07:19:42;;;;;;;0.00;0.00;;;16.90;99.90;;;;;;5075471;28;20584;-77
2023/08/26 07:22:08;;;;;;;0.03;0.03;;;17.00;99.90;;;;;;5082657;28;20012;-76
2023/08/26 07:24:34;;;;;;;0.00;0.00;;;17.20;99.90;;;;;;5072881;28;20500;-75
2023/08/26 07:27:00;;;;;;;0.00;0.00;;;17.30;99.90;;;;;;5065215;28;20083;-80
2023/08/26 07:29:25;;;;;;;0.23;0.23;;;17.00;99.90;;;;;;5076284;28;20028;-80
2023/08/26 07:31:51;;;;;;;0.00;0.00;;;17.00;99.90;;;;;;5082437;28;20910;-80
2023/08/26 07:34:17;;;;;;;1.30;0.60;;;17.00;99.90;;;;;;5082523;28;20020;-80
2023/08/26 07:36:43;;;;;;;0.00;0.00;;;17.00;99.90;;;;;;5082740;28;20021;-80
2023/08/26 07:39:08;;;;;;;0.00;0.00;;;17.00;99.90;;;;;;5061646;28;20480;-80
2023/08/26 07:41:35;;;;;;;0.20;0.20;;;17.10;99.90;;;;;;5072827;28;20627;-80
2023/08/26 07:44:01;;;;;;;0.10;0.10;;;17.00;99.90;;;;;;5082619;28;20457;-80
2023/08/26 07:46:26;;;;;;;0.00;0.00;;;16.90;99.90;;;;;;5082505;28;20043;-79
2023/08/26 07:48:52;;;;;;;0.00;0.00;;;17.10;99.90;;;;;;5082770;28;20170;-79
2023/08/26 07:51:18;;;;;;;0.00;0.00;;;17.40;99.90;;;;;;5082641;28;20024;-79
2023/08/26 07:53:44;;;;;;;0.00;0.00;;;17.50;99.90;;;;;;5082512;28;20425;-80
2023/08/26 07:56:09;;;;;;;0.00;0.00;;;17.80;99.90;;;;;;5082417;28;20553;-80
2023/08/26 07:58:35;;;;;;;0.00;0.00;;;18.00;99.90;;;;;;5078834;28;20095;-80
2023/08/26 08:01:01;;;;;;;0.10;0.10;;;18.00;99.90;;;;;;5080023;28;20547;-79
2023/08/26 08:03:27;;;;;;;0.00;0.00;;;18.10;99.90;;;;;;5076606;28;20032;-79
2023/08/26 08:05:53;;;;;;;0.00;0.00;;;18.30;99.90;;;;;;5081733;28;20089;-81
2023/08/26 08:08:19;;;;;;;0.00;0.00;;;18.30;99.90;;;;;;5075550;28;20428;-78
2023/08/26 08:10:44;;;;;;;0.00;0.00;;;18.40;99.90;;;;;;5074411;28;20051;-78
2023/08/26 08:13:10;;;;;;;0.00;0.00;;;18.50;99.90;;;;;;5083694;28;20020;-78
2023/08/26 08:15:36;;;;;;;0.07;0.07;;;18.50;99.90;;;;;;5075072;28;20052;-78
2023/08/26 08:18:02;;;;;;;0.13;0.13;;;18.40;99.90;;;;;;5065244;28;20801;-78
2023/08/26 08:20:31;;;;;;;0.00;0.00;;;18.30;99.90;;;;;;5085280;28;20209;-79
2023/08/26 08:22:57;;;;;;;0.00;0.00;;;18.40;99.90;;;;;;5082526;28;20134;-79
2023/08/26 08:25:24;;;;;;;0.00;0.00;;;18.20;99.90;;;;;;5076948;28;20100;-79
2023/08/26 08:27:49;;;;;;;;;;;18.20;99.90;;;;;;5078701;28;20020;-76
2023/08/26 08:30:15;;;;;;;0.00;0.00;;;18.10;99.90;;;;;;5084276;28;19915;-78
2023/08/26 08:32:41;;;;;;;1.40;1.30;;;18.00;99.90;;;;;;5085686;28;20028;-79
2023/08/26 08:35:07;;;;;;;0.00;0.00;;;17.80;99.90;;;;;;5086407;28;20889;-77
2023/08/26 08:37:33;;;;;;;0.00;0.00;;;17.80;99.90;;;;;;5085914;28;20021;-78
2023/08/26 08:39:59;;;;;;;0.10;0.10;;;17.80;99.90;;;;;;5085617;28;20021;-79
2023/08/26 08:42:25;;;;;;;0.00;0.00;;;17.70;99.90;;;;;;5085502;28;20077;-79
2023/08/26 08:44:51;;;;;;;0.00;0.00;;;17.80;99.90;;;;;;5067320;28;20535;-78
2023/08/26 08:47:17;;;;;;;0.10;0.10;;;18.10;99.90;;;;;;5078207;28;20016;-78
2023/08/26 08:49:43;;;;;;;0.00;0.00;;;18.20;99.90;;;;;;5085046;28;20262;-82
2023/08/26 08:52:10;;;;;;;0.00;0.00;;;18.20;99.90;;;;;;5084957;28;20388;-79
2023/08/26 08:54:36;;;;;;;0.00;0.00;;;18.30;99.90;;;;;;5085386;28;20028;-79
2023/08/26 08:57:03;;;;;;;0.00;0.00;;;18.80;99.90;;;;;;5083219;28;20020;-79
2023/08/26 08:59:30;;;;;;;;;;;19.70;99.90;;;;;;5084635;28;20028;-81
2023/08/26 09:01:58;;;;;;;0.00;0.00;;;19.90;99.90;;;;;;5078737;28;19900;-79
2023/08/26 09:04:25;;;;;;;0.65;0.57;;;20.50;99.90;;;;;;5076491;28;20046;-80
2023/08/26 09:06:53;;;;;;;;;;;20.30;99.90;;;;;;5065322;28;20550;-78
2023/08/26 09:09:20;;;;;;;0.00;0.00;;;20.00;99.90;;;;;;5068664;28;19916;-80
2023/08/26 09:11:47;;;;;;;0.00;0.00;;;19.70;99.90;;;;;;5065975;28;20055;-79
2023/08/26 09:14:13;;;;;;;0.00;0.00;;;19.50;99.90;;;;;;5070361;28;20032;-81
2023/08/26 09:16:40;;;;;;;0.20;0.20;;;19.40;99.90;;;;;;5075491;28;20040;-80
2023/08/26 09:19:07;;;;;;;0.00;0.00;;;19.20;99.90;;;;;;5082785;28;20038;-79
2023/08/26 09:21:33;;;;;;;0.00;0.00;;;19.40;99.90;;;;;;5066575;28;20032;-82
2023/08/26 09:24:00;;;;;;;0.00;0.00;;;19.50;99.90;;;;;;5084166;28;20077;-80
2023/08/26 09:26:26;;;;;;;0.00;0.00;;;19.80;99.90;;;;;;5077020;28;20074;-80
2023/08/26 09:28:52;;;;;;;0.00;0.00;;;20.10;99.90;;;;;;5061795;28;20040;-80
2023/08/26 09:31:19;;;;;;;0.00;0.00;;;20.40;99.90;;;;;;5085349;28;20039;-80
2023/08/26 09:33:59;;;;;;;0.00;0.00;;;21.70;99.90;;;;;;5071671;28;20032;-79
2023/08/26 09:36:41;;;;;;;0.00;0.00;;;22.30;99.40;;;;;;5084933;28;20020;-80
2023/08/26 09:39:14;;;;;;;0.00;0.00;;;23.30;96.80;;;;;;5057659;28;20043;-80
2023/08/26 09:41:44;;;;;;;0.00;0.00;;;23.70;93.00;;;;;;5080853;28;20579;-80
2023/08/26 09:44:10;;;;;;;0.00;0.00;;;23.00;93.90;;;;;;5057511;28;20567;-80
2023/08/26 09:46:36;;;;;;;0.00;0.00;;;22.60;94.70;;;;;;5084612;28;20020;-79
2023/08/26 09:49:03;;;;;;;0.00;0.00;;;22.40;94.20;;;;;;5083616;28;20531;-79
2023/08/26 09:51:29;;;;;;;;;;;22.20;93.80;;;;;;5083809;28;20016;-80
2023/08/26 09:53:56;;;;;;;0.00;0.00;;;22.00;95.10;;;;;;5057609;28;20007;-81
2023/08/26 09:56:24;;;;;;;0.00;0.00;;;21.80;94.90;;;;;;5051694;28;20119;-80
2023/08/26 09:58:54;;;;;;;0.00;0.00;;;21.60;94.80;;;;;;5050865;28;20035;-81
2023/08/26 10:01:20;;;;;;;0.00;0.00;;;21.60;92.40;;;;;;5079735;28;20043;-80
2023/08/26 10:03:51;;;;;;;0.00;0.00;;;21.20;88.90;;;;;;5078152;28;20115;-79
2023/08/26 10:06:21;;;;;;;0.00;0.00;;;21.90;88.90;;;;;;5074303;28;20491;-78
2023/08/26 10:08:55;;;;;;;0.00;0.00;;;22.70;86.50;;;;;;5069726;28;20064;-81
2023/08/26 10:11:22;;;;;;;0.00;0.00;;;23.70;83.60;;;;;;5057355;28;20082;-79
2023/08/26 10:13:53;;;;;;;;;;;23.40;82.60;;;;;;5055911;28;20024;-79
2023/08/26 10:16:23;;;;;;;0.00;0.00;;;22.90;82.80;;;;;;5050116;28;19932;-76
2023/08/26 10:18:54;;;;;;;0.00;0.00;;;23.00;86.70;;;;;;5055148;28;20678;-80
2023/08/26 10:21:20;;;;;;;0.00;0.00;;;23.10;83.50;;;;;;5046383;28;20719;-76
2023/08/26 10:23:48;;;;;;;0.00;0.00;;;23.20;85.10;;;;;;5053391;28;20021;-77
2023/08/26 10:26:14;;;;;;;0.00;0.00;;;23.10;84.20;;;;;;5050535;28;20479;-79
2023/08/26 10:28:40;;;;;;;;;;;22.70;84.20;;;;;;5052866;28;20020;-77
2023/08/26 10:31:07;;;;;;;0.00;0.00;;;22.70;83.80;;;;;;5056238;28;20744;-79
2023/08/26 10:34:00;;;;;;;0.00;0.00;;;22.50;83.00;;;;;;5059891;28;20016;-82
2023/08/26 10:36:26;;;;;;;0.00;0.00;;;22.40;83.50;;;;;;5062142;28;20479;-78
2023/08/26 10:38:59;;;;;;;;;;;22.70;83.60;;;;;;5060786;28;20829;-77
2023/08/26 10:41:25;;;;;;;0.00;0.00;;;22.50;86.70;;;;;;5049583;28;19907;-78
2023/08/26 10:44:01;;;;;;;0.00;0.00;;;22.60;84.90;;;;;;5052095;28;20013;-77
2023/08/26 10:46:56;;;;;;;0.00;0.00;;;22.60;86.10;;;;;;5045745;28;20043;-78
2023/08/26 10:49:28;;;;;;;0.22;0.22;;;23.30;83.40;;;;;;5048186;28;20489;-76
2023/08/26 10:52:16;;;;;;;0.00;0.00;;;23.30;83.50;;;;;;5061276;28;20082;-77
2023/08/26 10:54:43;;;;;;;0.00;0.00;;;23.10;81.90;;;;;;5046486;28;20029;-77
2023/08/26 10:57:09;;;;;;;0.00;0.00;;;23.10;83.00;;;;;;5054049;28;20027;-78
2023/08/26 10:59:37;;;;;;;0.00;0.00;;;23.00;83.30;;;;;;5059478;28;20032;-76
2023/08/26 11:02:08;;;;;;;0.00;0.00;;;23.20;82.60;;;;;;5052552;28;20090;-78
2023/08/26 11:04:40;;;;;;;0.00;0.00;;;23.00;83.30;;;;;;5043642;28;20043;-81
2023/08/26 11:07:06;;;;;;;0.00;0.00;;;22.50;84.30;;;;;;5054243;28;20024;-77
2023/08/26 11:09:32;;;;;;;0.00;0.00;;;23.20;83.00;;;;;;5051347;28;20089;-80
2023/08/26 11:11:57;;;;;;;0.00;0.00;;;22.90;81.50;;;;;;5053577;28;20057;-82
2023/08/26 11:14:31;;;;;;;0.00;0.00;;;23.40;78.50;;;;;;5043753;28;20061;-77
2023/08/26 11:16:59;;;;;;;0.00;0.00;;;23.50;73.80;;;;;;5068856;28;20487;-79
2023/08/26 11:19:25;;;;;;;0.00;0.00;;;23.30;71.80;;;;;;5073565;28;20105;-78
2023/08/26 11:21:51;;;;;;;;;;;23.70;71.90;;;;;;5070993;28;20028;-81
2023/08/26 11:24:17;;;;;;;0.00;0.00;;;23.40;73.20;;;;;;5080769;28;19908;-77
2023/08/26 11:26:47;;;;;;;;;;;23.20;73.70;;;;;;5059955;28;20024;-79
2023/08/26 11:29:13;;;;;;;0.45;0.45;;;23.30;74.30;;;;;;5080241;28;19919;-78
2023/08/26 11:31:39;;;;;;;0.00;0.00;;;23.00;73.90;;;;;;5077982;28;20375;-79
2023/08/26 11:34:05;;;;;;;0.00;0.00;;;22.80;75.30;;;;;;5073052;28;20067;-79
2023/08/26 11:36:30;;;;;;;0.00;0.00;;;23.20;76.10;;;;;;5077348;28;20024;-79
2023/08/26 11:38:56;;;;;;;0.00;0.00;;;23.70;79.60;;;;;;5072305;28;20028;-82
2023/08/26 11:41:21;;;;;;;0.00;0.00;;;23.50;77.10;;;;;;5072314;28;20024;-82
2023/08/26 11:43:47;;;;;;;0.00;0.00;;;22.60;80.10;;;;;;5078416;28;20059;-81
2023/08/26 11:46:13;;;;;;;0.33;0.33;;;22.70;83.70;;;;;;5075339;28;20028;-80
2023/08/26 11:48:40;;;;;;;0.00;0.00;;;22.50;82.00;;;;;;5077293;28;20020;-85
2023/08/26 11:51:06;;;;;;;;;;;22.50;77.80;;;;;;5075091;28;20036;-80
2023/08/26 11:53:31;;;;;;;;;;;22.50;78.40;;;;;;5077957;28;19914;-83
2023/08/26 11:55:57;;;;;;;0.00;0.00;;;22.90;80.10;;;;;;5079854;28;19936;-84
2023/08/26 11:58:23;;;;;;;0.00;0.00;;;22.70;79.70;;;;;;5062064;28;20163;-83
2023/08/26 12:00:48;;;;;;;1.00;0.93;;;23.00;80.30;;;;;;5080399;28;20415;-83
2023/08/26 12:03:14;;;;;;;0.00;0.00;;;23.30;80.00;;;;;;5077110;28;20128;-84
2023/08/26 12:05:46;;;;;;;0.00;0.00;;;23.20;77.80;;;;;;5077544;28;20670;-82
2023/08/26 12:08:19;;;;;;;0.00;0.00;;;23.50;77.20;;;;;;5079656;28;20051;-84
2023/08/26 12:10:53;;;;;;;0.20;0.20;;;24.00;77.70;;;;;;5063234;28;20039;-86
2023/08/26 12:13:19;;;;;;;0.00;0.00;;;23.70;79.50;;;;;;5083535;28;20565;-82
2023/08/26 12:15:45;;;;;;;0.00;0.00;;;23.00;77.40;;;;;;5082851;28;20585;-83
2023/08/26 12:18:11;;;;;;;0.00;0.00;;;23.10;78.30;;;;;;5078590;28;20123;-82
2023/08/26 12:20:38;;;;;;;0.10;0.10;;;23.50;80.60;;;;;;5081067;28;20032;-82
2023/08/26 12:23:06;;;;;;;0.00;0.00;;;23.00;82.90;;;;;;5077642;28;20214;-81
2023/08/26 12:25:36;;;;;;;0.00;0.00;;;22.80;82.90;;;;;;5056268;28;20056;-81
2023/08/26 12:28:08;;;;;;;0.00;0.00;;;22.50;84.50;;;;;;5076283;28;20070;-81
2023/08/26 12:30:38;;;;;;;0.00;0.00;;;23.10;81.90;;;;;;5076447;28;20020;-81
2023/08/26 12:33:07;;;;;;;0.00;0.00;;;23.80;80.40;;;;;;5071037;28;20525;-81
2023/08/26 12:35:36;;;;;;;0.00;0.00;;;24.20;81.50;;;;;;5058729;28;20020;-82
2023/08/26 12:38:02;;;;;;;0.00;0.00;;;23.90;77.60;;;;;;5084822;28;20043;-81
2023/08/26 12:40:29;;;;;;;;;;;23.70;80.00;;;;;;5077862;28;20020;-81
2023/08/26 12:42:55;;;;;;;0.00;0.00;;;23.90;79.30;;;;;;5082658;28;20270;-81
2023/08/26 12:45:21;;;;;;;0.00;0.00;;;23.70;76.40;;;;;;5083850;28;20027;-81
2023/08/26 12:47:47;;;;;;;0.10;0.10;;;23.90;78.90;;;;;;5053940;28;20036;-81